Time;durP1;ratioP1;P1;durP2;ratioP2;P2;SDS_P1;SDS_P2;PMS_P1;PMS_P2;Temp;Humidity;BMP_temperature;BMP_pressure;BME280_temperature;BME280_humidity;BME280_pressure;Samples;Min_cycle;Max_cycle;Signal;HPM_P1;HPM_P2
2022/11/08 00:03:41;;;;;;;30.15;15.02;;;;;;;4.83;69.51;99983.91;5042888;28;20333;-63
2022/11/08 00:14:18;;;;;;;30.15;15.13;;;;;;;4.81;69.58;99953.91;5037978;28;20037;-61
2022/11/08 00:16:43;;;;;;;29.73;14.85;;;;;;;4.93;69.59;99968.31;5016845;28;20034;-61
2022/11/08 00:19:08;;;;;;;29.23;14.05;;;;;;;4.92;69.86;99975.44;5034163;28;20037;-63
2022/11/08 00:21:34;;;;;;;27.98;15.02;;;;;;;4.92;69.62;99961.28;5032384;28;20061;-63
2022/11/08 00:23:59;;;;;;;28.63;14.10;;;;;;;4.90;69.45;99956.09;5045524;28;20047;-61
2022/11/08 00:26:26;;;;;;;28.70;14.50;;;;;;;4.53;70.42;99913.88;5052702;28;20041;-62
2022/11/08 00:28:51;;;;;;;33.47;16.60;;;;;;;4.82;70.17;99951.19;5040444;28;20117;-60
2022/11/08 00:31:16;;;;;;;30.90;16.13;;;;;;;4.80;70.22;99947.78;5033185;28;20503;-62
2022/11/08 00:33:42;;;;;;;32.67;15.18;;;;;;;4.79;70.65;99940.75;5034361;28;20029;-59
2022/11/08 00:36:08;;;;;;;31.33;15.65;;;;;;;4.79;70.07;99942.53;5032859;28;20124;-59
2022/11/08 00:38:33;;;;;;;30.08;15.02;;;;;;;4.79;70.31;99924.84;5033179;28;20025;-60
2022/11/08 00:40:59;;;;;;;33.30;16.20;;;;;;;4.82;69.99;99934.41;5048690;28;20036;-60
2022/11/08 00:43:24;;;;;;;35.83;16.60;;;;;;;4.84;70.76;99928.09;5033820;28;20124;-60
2022/11/08 00:45:49;;;;;;;29.73;14.77;;;;;;;4.87;70.46;99924.44;5033043;28;20073;-60
2022/11/08 00:48:15;;;;;;;30.92;15.15;;;;;;;4.61;70.05;99871.03;5032788;28;20051;-60
2022/11/08 00:50:40;;;;;;;32.85;16.02;;;;;;;4.98;70.18;99910.56;5032740;28;20116;-60
2022/11/08 00:53:06;;;;;;;30.42;15.50;;;;;;;4.81;69.96;99879.66;5041285;28;20455;-60
2022/11/08 00:55:32;;;;;;;32.45;15.55;;;;;;;4.93;70.50;99910.81;5051567;28;20095;-60
2022/11/08 00:57:57;;;;;;;35.38;17.13;;;;;;;4.98;70.23;99913.22;5052683;28;20471;-58
2022/11/08 01:00:23;;;;;;;31.73;16.23;;;;;;;4.97;70.22;99916.81;5052613;28;20102;-58
2022/11/08 01:03:17;;;;;;;35.17;15.95;;;;;;;4.96;70.05;99923.91;5050741;28;20452;-59
2022/11/08 01:05:36;;;;;;;30.75;15.52;;;;;;;4.93;70.57;99902.84;5052339;28;20037;-59
2022/11/08 01:08:02;;;;;;;30.92;15.73;;;;;;;4.99;70.26;99917.59;5052453;28;20416;-59
2022/11/08 01:10:27;;;;;;;30.42;15.77;;;;;;;4.91;69.86;99910.03;5052457;28;20070;-62
2022/11/08 01:12:53;;;;;;;33.40;16.58;;;;;;;5.00;70.11;99922.78;5049114;28;20444;-60
2022/11/08 01:15:18;;;;;;;35.55;16.63;;;;;;;4.97;70.23;99928.28;5052044;28;20432;-60
2022/11/08 01:17:44;;;;;;;33.50;16.52;;;;;;;4.93;70.03;99929.38;5051883;28;20029;-60
2022/11/08 01:20:09;;;;;;;36.95;16.83;;;;;;;4.88;70.47;99918.19;5051943;28;20102;-60
2022/11/08 01:22:35;;;;;;;36.42;17.38;;;;;;;4.86;70.39;99912.09;5044894;28;20187;-59
2022/11/08 01:25:00;;;;;;;36.47;16.75;;;;;;;4.88;70.35;99912.88;5031789;28;20433;-57
2022/11/08 01:27:26;;;;;;;34.08;16.17;;;;;;;4.90;70.52;99913.66;5032179;28;20052;-60
2022/11/08 01:29:51;;;;;;;34.80;16.73;;;;;;;4.89;70.60;99914.59;5034585;28;20036;-60
2022/11/08 01:32:16;;;;;;;34.17;16.42;;;;;;;4.92;70.36;99909.09;5039676;28;20371;-61
2022/11/08 01:34:42;;;;;;;31.40;16.13;;;;;;;4.92;70.28;99893.19;5032787;28;20065;-61
2022/11/08 01:37:07;;;;;;;33.53;17.40;;;;;;;4.76;70.50;99871.09;5031920;28;20054;-59
2022/11/08 01:39:33;;;;;;;36.03;16.95;;;;;;;4.86;70.91;99914.75;5032088;28;20037;-61
2022/11/08 01:41:58;;;;;;;32.88;16.10;;;;;;;4.70;71.04;99882.91;5043296;28;20117;-60
2022/11/08 01:44:24;;;;;;;34.33;17.13;;;;;;;4.89;70.29;99901.31;5032524;28;20053;-61
2022/11/08 01:46:49;;;;;;;36.55;15.60;;;;;;;4.85;71.04;99907.75;5031838;28;20424;-58
2022/11/08 01:49:18;;;;;;;36.28;16.75;;;;;;;4.85;70.69;99905.09;5031373;28;20048;-61
2022/11/08 01:51:47;;;;;;;36.15;16.75;;;;;;;4.66;71.04;99868.97;5049876;28;20033;-61
2022/11/08 01:54:17;;;;;;;36.70;16.13;;;;;;;4.85;70.57;99897.13;5052407;28;20058;-61
2022/11/08 01:56:43;;;;;;;37.33;17.17;;;;;;;4.81;70.92;99884.94;5036663;28;20104;-61
2022/11/08 01:59:11;;;;;;;35.20;16.42;;;;;;;4.82;70.90;99899.94;5032819;28;20044;-60
2022/11/08 02:01:37;;;;;;;34.15;17.15;;;;;;;4.71;70.72;99876.69;5032264;28;20037;-59
2022/11/08 02:04:03;;;;;;;35.80;15.88;;;;;;;4.71;70.92;99884.63;5034793;28;20033;-55
2022/11/08 02:06:32;;;;;;;37.03;17.88;;;;;;;4.78;71.10;99895.75;5051510;28;20481;-58
2022/11/08 02:09:02;;;;;;;37.17;17.50;;;;;;;4.80;71.15;99885.91;5035217;28;20460;-56
2022/11/08 02:11:28;;;;;;;37.42;17.33;;;;;;;4.71;71.72;99864.25;5032153;28;20072;-57
2022/11/08 02:13:54;;;;;;;35.67;17.30;;;;;;;4.71;71.20;99858.94;5047955;28;20026;-58
2022/11/08 02:16:19;;;;;;;39.55;18.13;;;;;;;4.79;71.38;99857.66;5031732;28;20112;-59
2022/11/08 02:18:47;;;;;;;36.45;16.92;;;;;;;4.72;70.96;99849.22;5045937;28;20032;-55
2022/11/08 02:21:34;;;;;;;42.67;17.80;;;;;;;4.77;71.06;99864.84;5051827;28;20029;-55
2022/11/08 02:24:02;;;;;;;38.00;17.02;;;;;;;4.68;71.55;99859.13;5050417;28;20188;-58
2022/11/08 02:26:31;;;;;;;35.47;17.40;;;;;;;4.71;71.75;99882.81;5053462;28;20028;-56
2022/11/08 02:28:57;;;;;;;36.58;16.23;;;;;;;4.72;71.56;99876.56;5035657;28;20045;-59
2022/11/08 02:31:22;;;;;;;37.50;17.52;;;;;;;4.70;71.51;99874.94;5035285;28;20025;-57
2022/11/08 02:33:48;;;;;;;36.33;17.63;;;;;;;4.63;71.83;99871.78;5048534;28;20467;-59
2022/11/08 02:36:20;;;;;;;39.03;17.52;;;;;;;4.65;71.90;99864.59;5055126;28;20033;-58
2022/11/08 02:38:51;;;;;;;34.58;17.15;;;;;;;4.67;71.97;99870.69;5053535;28;20352;-55
2022/11/08 02:41:16;;;;;;;31.15;16.58;;;;;;;4.66;72.29;99866.31;5055667;28;20521;-57
2022/11/08 02:43:42;;;;;;;32.95;17.13;;;;;;;4.69;71.67;99847.56;5055072;28;20144;-56
2022/11/08 02:46:07;;;;;;;36.08;17.70;;;;;;;4.68;72.00;99842.34;5054483;28;20384;-56
2022/11/08 02:48:33;;;;;;;34.63;16.80;;;;;;;4.76;71.78;99844.56;5066361;28;20116;-55
2022/11/08 02:50:58;;;;;;;32.92;16.35;;;;;;;4.75;71.59;99849.03;5034962;28;20021;-55
2022/11/08 02:53:23;;;;;;;32.08;16.25;;;;;;;4.57;72.13;99813.78;5044800;28;20403;-61
2022/11/08 02:55:49;;;;;;;35.28;16.50;;;;;;;4.76;72.21;99848.09;5055167;28;20040;-61
2022/11/08 02:58:14;;;;;;;33.53;16.90;;;;;;;4.78;71.92;99840.91;5037210;28;20025;-62
2022/11/08 03:00:40;;;;;;;32.75;16.98;;;;;;;4.82;71.79;99844.22;5050646;28;20041;-61
2022/11/08 03:03:05;;;;;;;34.58;17.25;;;;;;;4.82;71.64;99841.56;5035126;28;20070;-63
2022/11/08 03:05:31;;;;;;;36.22;16.92;;;;;;;4.62;72.00;99809.09;5034714;28;20029;-61
2022/11/08 03:07:57;;;;;;;33.20;16.92;;;;;;;4.64;72.11;99806.34;5050900;28;20032;-61
2022/11/08 03:10:24;;;;;;;32.65;16.17;;;;;;;4.81;72.31;99830.13;5054969;28;20041;-58
2022/11/08 03:12:58;;;;;;;35.13;16.83;;;;;;;4.72;71.86;99812.09;5054598;28;20031;-59
2022/11/08 03:15:23;;;;;;;35.90;17.35;;;;;;;4.82;72.46;99833.59;5053976;28;20067;-58
2022/11/08 03:17:49;;;;;;;36.70;16.90;;;;;;;4.86;71.66;99829.88;5038168;28;20036;-57
2022/11/08 03:20:15;;;;;;;33.28;15.90;;;;;;;4.82;72.30;99825.66;5035029;28;20037;-61
2022/11/08 03:22:40;;;;;;;33.10;15.95;;;;;;;4.36;72.27;99758.38;5034488;28;20337;-58
2022/11/08 03:25:06;;;;;;;31.45;16.15;;;;;;;4.77;72.32;99831.25;5034289;28;20434;-58
2022/11/08 03:27:31;;;;;;;33.92;16.88;;;;;;;4.75;72.13;99827.81;5050633;28;20078;-58
2022/11/08 03:29:57;;;;;;;36.05;16.98;;;;;;;4.76;72.82;99832.19;5053703;28;20037;-57
2022/11/08 03:32:22;;;;;;;28.90;14.77;;;;;;;4.70;72.76;99825.41;5054271;28;20045;-58
2022/11/08 03:34:47;;;;;;;30.40;15.85;;;;;;;4.76;73.03;99829.53;5053698;28;20033;-59
2022/11/08 03:37:13;;;;;;;34.25;16.15;;;;;;;4.71;72.82;99816.50;5052647;28;20033;-60
2022/11/08 03:39:38;;;;;;;37.13;16.55;;;;;;;4.76;72.96;99815.41;5054389;28;20447;-57
2022/11/08 03:42:04;;;;;;;30.77;16.17;;;;;;;4.76;73.28;99812.75;5051863;28;20029;-57
2022/11/08 03:44:30;;;;;;;31.88;15.88;;;;;;;4.77;73.25;99811.81;5035148;28;20486;-58
2022/11/08 03:46:56;;;;;;;29.42;15.27;;;;;;;4.76;73.00;99802.13;5044939;28;20375;-60
2022/11/08 03:49:22;;;;;;;28.00;14.90;;;;;;;4.80;72.59;99793.06;5070544;28;20037;-57
2022/11/08 03:51:47;;;;;;;28.60;15.23;;;;;;;4.80;72.81;99803.66;5053656;28;20033;-59
2022/11/08 03:54:13;;;;;;;29.33;15.48;;;;;;;4.77;72.56;99790.59;5053651;28;20115;-59
2022/11/08 03:56:39;;;;;;;29.23;14.75;;;;;;;4.79;72.99;99799.31;5045286;28;20037;-57
2022/11/08 03:59:04;;;;;;;29.52;14.55;;;;;;;4.76;73.34;99796.81;5033193;28;20034;-60
2022/11/08 04:01:31;;;;;;;25.50;14.15;;;;;;;4.81;73.39;99800.06;5049144;28;20436;-58
2022/11/08 04:03:56;;;;;;;29.90;15.10;;;;;;;4.83;72.71;99792.91;5035593;28;20159;-59
2022/11/08 04:06:21;;;;;;;29.63;14.80;;;;;;;4.81;73.18;99790.31;5039530;28;20075;-58
2022/11/08 04:08:47;;;;;;;22.80;13.50;;;;;;;4.84;73.01;99789.31;5050188;28;20026;-58
2022/11/08 04:16:40;;;;;;;27.25;13.95;;;;;;;4.91;72.73;99805.69;5045565;28;20030;-58
2022/11/08 04:21:52;;;;;;;27.13;13.85;;;;;;;4.94;71.90;99795.78;5032885;28;20391;-60
2022/11/08 04:24:18;;;;;;;23.83;12.98;;;;;;;4.96;72.30;99796.53;5033271;28;20061;-62
2022/11/08 04:26:43;;;;;;;23.70;13.10;;;;;;;4.94;71.91;99797.56;5040948;28;20435;-59
2022/11/08 04:29:09;;;;;;;21.30;13.48;;;;;;;4.94;72.34;99802.88;5033595;28;20033;-62
2022/11/08 04:31:35;;;;;;;24.63;14.55;;;;;;;4.91;72.21;99788.00;5041050;28;20106;-60
2022/11/08 04:34:01;;;;;;;25.05;13.32;;;;;;;4.95;71.76;99797.50;5051936;28;20021;-59
2022/11/08 04:36:26;;;;;;;26.38;13.32;;;;;;;5.00;71.78;99784.81;5047162;28;20032;-61
2022/11/08 04:38:52;;;;;;;21.95;12.80;;;;;;;4.98;71.98;99784.03;5033110;28;20187;-58
2022/11/08 04:41:21;;;;;;;23.50;13.57;;;;;;;5.04;71.86;99785.50;5037881;28;20363;-61
2022/11/08 04:43:47;;;;;;;22.50;12.80;;;;;;;5.03;71.42;99789.09;5052800;28;20601;-61
2022/11/08 04:46:16;;;;;;;23.20;13.40;;;;;;;5.03;72.16;99795.25;5050153;28;20861;-62
2022/11/08 04:48:42;;;;;;;22.10;13.52;;;;;;;5.03;71.78;99794.41;5046989;28;20114;-60
2022/11/08 04:51:25;;;;;;;21.85;13.07;;;;;;;5.11;71.69;99793.97;5036520;28;20349;-61
2022/11/08 04:53:51;;;;;;;23.15;12.20;;;;;;;5.06;71.48;99783.59;5032429;28;20099;-62
2022/11/08 04:56:18;;;;;;;22.70;12.95;;;;;;;5.07;71.35;99784.47;5032821;28;20504;-61
2022/11/08 04:58:55;;;;;;;22.98;13.02;;;;;;;5.00;71.82;99786.63;5039621;28;20479;-62
2022/11/08 05:01:23;;;;;;;23.10;13.70;;;;;;;5.02;71.98;99790.88;5050350;28;20029;-61
2022/11/08 05:03:50;;;;;;;23.60;12.52;;;;;;;5.03;72.09;99787.28;5052282;28;20032;-61
2022/11/08 05:06:21;;;;;;;19.67;11.32;;;;;;;5.08;71.78;99783.53;5051041;28;20047;-61
2022/11/08 05:08:48;;;;;;;19.10;11.57;;;;;;;4.95;71.98;99765.66;5034545;28;20038;-61
2022/11/08 05:11:16;;;;;;;21.00;12.60;;;;;;;5.10;71.93;99784.28;5032282;28;20037;-63
2022/11/08 05:13:42;;;;;;;20.88;12.25;;;;;;;5.05;72.09;99783.69;5032720;28;20037;-64
2022/11/08 05:16:15;;;;;;;20.48;12.25;;;;;;;5.14;71.75;99791.13;5036102;28;20446;-64
2022/11/08 05:18:41;;;;;;;20.90;11.90;;;;;;;4.93;71.88;99748.97;5067924;28;20427;-63
2022/11/08 05:23:53;;;;;;;18.05;10.77;;;;;;;5.03;71.62;99760.75;5032476;28;20404;-57
2022/11/08 05:26:19;;;;;;;19.42;11.88;;;;;;;5.08;71.56;99762.28;5035850;28;20068;-61
2022/11/08 05:28:45;;;;;;;20.55;12.73;;;;;;;5.12;71.87;99777.94;5032157;28;20026;-49
2022/11/08 05:31:11;;;;;;;23.80;11.57;;;;;;;5.15;71.75;99777.75;5032333;28;20464;-68
2022/11/08 05:33:37;;;;;;;21.10;10.98;;;;;;;5.19;71.96;99772.28;5036136;28;20033;-68
2022/11/08 05:36:10;;;;;;;19.40;11.30;;;;;;;5.21;71.90;99770.38;5052222;28;20044;-65
2022/11/08 05:38:37;;;;;;;21.05;11.70;;;;;;;5.25;71.82;99777.22;5051842;28;20056;-60
2022/11/08 05:41:04;;;;;;;18.42;11.02;;;;;;;5.23;72.32;99779.94;5045626;28;20466;-62
2022/11/08 05:43:30;;;;;;;16.83;11.00;;;;;;;5.21;72.47;99773.03;5032506;28;20037;-58
2022/11/08 05:45:55;;;;;;;19.45;10.63;;;;;;;5.15;72.53;99756.50;5032417;28;20041;-63
2022/11/08 05:48:21;;;;;;;16.58;10.05;;;;;;;5.25;72.77;99762.13;5031506;28;20034;-62
2022/11/08 05:50:47;;;;;;;16.02;9.55;;;;;;;5.25;72.61;99764.78;5032295;28;20155;-60
2022/11/08 05:53:12;;;;;;;15.27;9.52;;;;;;;5.24;72.28;99763.06;5032489;28;20025;-56
2022/11/08 05:55:38;;;;;;;15.77;9.13;;;;;;;5.22;72.67;99757.00;5032151;28;20090;-64
2022/11/08 05:58:03;;;;;;;15.70;10.00;;;;;;;5.24;72.42;99759.59;5048879;28;20119;-64
2022/11/08 06:00:29;;;;;;;15.70;10.15;;;;;;;5.24;72.45;99747.16;5056583;28;20033;-63
2022/11/08 06:02:54;;;;;;;15.73;9.32;;;;;;;5.26;72.58;99755.03;5046667;28;20460;-66
2022/11/08 06:05:20;;;;;;;14.98;9.57;;;;;;;5.31;72.58;99756.47;5043165;28;20033;-65
2022/11/08 06:07:45;;;;;;;17.35;9.57;;;;;;;5.26;72.43;99747.91;5055928;28;20060;-64
2022/11/08 06:10:12;;;;;;;17.13;10.02;;;;;;;5.23;72.07;99734.81;5056074;28;20025;-62
2022/11/08 06:12:38;;;;;;;17.35;10.15;;;;;;;5.39;72.48;99747.19;5055468;28;20036;-66
2022/11/08 06:15:05;;;;;;;15.23;9.18;;;;;;;5.49;71.49;99756.28;5055727;28;20033;-68
2022/11/08 06:17:31;;;;;;;16.65;9.30;;;;;;;5.45;72.05;99744.16;5054187;28;20064;-66
2022/11/08 06:19:56;;;;;;;19.77;10.18;;;;;;;5.35;72.05;99722.63;5055741;28;20436;-68
2022/11/08 06:22:22;;;;;;;16.52;9.75;;;;;;;5.49;71.78;99742.16;5050733;28;20091;-66
2022/11/08 06:24:47;;;;;;;15.20;9.15;;;;;;;5.51;71.77;99735.81;5035942;28;20435;-67
2022/11/08 06:27:13;;;;;;;16.08;9.32;;;;;;;5.50;71.94;99734.09;5038139;28;20033;-68
2022/11/08 06:29:41;;;;;;;15.40;9.60;;;;;;;5.42;71.76;99710.66;5056063;28;20040;-67
2022/11/08 06:32:08;;;;;;;16.23;9.57;;;;;;;5.57;71.40;99734.59;5053530;28;20040;-67
2022/11/08 06:34:33;;;;;;;15.20;10.00;;;;;;;5.57;71.73;99731.94;5039180;28;20503;-67
2022/11/08 06:36:59;;;;;;;17.00;9.85;;;;;;;5.56;71.71;99727.56;5035308;28;20159;-64
2022/11/08 06:39:24;;;;;;;18.83;9.70;;;;;;;5.58;71.66;99737.16;5055110;28;20052;-63
2022/11/08 06:41:50;;;;;;;20.20;11.07;;;;;;;5.62;71.83;99734.31;5053946;28;20119;-61
2022/11/08 06:44:15;;;;;;;20.92;11.20;;;;;;;5.64;71.78;99735.91;5053219;28;20071;-62
2022/11/08 06:46:41;;;;;;;17.75;10.50;;;;;;;5.69;72.04;99732.97;5055455;28;20045;-62
2022/11/08 06:49:06;;;;;;;16.55;10.02;;;;;;;5.74;71.21;99734.41;5060072;28;20484;-61
2022/11/08 06:51:31;;;;;;;20.30;11.15;;;;;;;5.74;71.68;99739.72;5075180;28;20180;-61
2022/11/08 06:53:57;;;;;;;20.25;11.85;;;;;;;5.69;71.69;99730.31;5075019;28;20461;-62
2022/11/08 06:56:22;;;;;;;21.80;10.88;;;;;;;5.80;71.62;99742.94;5074839;28;20048;-62
2022/11/08 06:58:48;;;;;;;19.77;11.60;;;;;;;5.82;71.66;99749.00;5074686;28;20055;-60
2022/11/08 07:01:13;;;;;;;19.20;11.65;;;;;;;5.82;71.51;99749.88;5074825;28;20127;-61
2022/11/08 07:03:39;;;;;;;20.10;11.60;;;;;;;5.83;71.35;99745.41;5074518;28;20028;-63
2022/11/08 07:06:05;;;;;;;20.65;11.95;;;;;;;5.86;71.34;99761.16;5074852;28;20025;-62
2022/11/08 07:08:32;;;;;;;19.27;11.90;;;;;;;5.85;71.51;99754.13;5062015;28;20056;-61
2022/11/08 07:10:58;;;;;;;23.52;13.02;;;;;;;5.86;71.79;99762.00;5034441;28;20030;-61
2022/11/08 07:13:23;;;;;;;20.88;12.05;;;;;;;5.81;71.58;99744.63;5034265;28;20071;-61
2022/11/08 07:15:49;;;;;;;21.60;13.07;;;;;;;5.93;71.37;99743.03;5034190;28;20155;-61
2022/11/08 07:18:16;;;;;;;23.20;12.38;;;;;;;5.86;71.81;99734.56;5034856;28;20112;-62
2022/11/08 07:20:42;;;;;;;22.55;13.07;;;;;;;5.96;72.00;99750.81;5066422;28;20083;-61
2022/11/08 07:23:09;;;;;;;21.70;12.20;;;;;;;5.99;71.58;99753.25;5073424;28;20443;-62
2022/11/08 07:25:35;;;;;;;21.52;12.95;;;;;;;5.94;71.64;99718.16;5074974;28;20071;-61
2022/11/08 07:28:03;;;;;;;27.13;13.45;;;;;;;6.06;71.49;99727.19;5074408;28;20041;-62
2022/11/08 07:30:28;;;;;;;25.20;13.32;;;;;;;6.10;71.11;99728.69;5074689;28;20056;-61
2022/11/08 07:32:55;;;;;;;22.38;12.98;;;;;;;6.14;71.45;99730.19;5074342;28;20064;-62
2022/11/08 07:35:21;;;;;;;25.75;13.73;;;;;;;6.14;71.13;99728.41;5073534;28;20116;-62
2022/11/08 07:37:46;;;;;;;23.35;12.68;;;;;;;6.21;71.42;99728.00;5067886;28;20072;-62
2022/11/08 07:40:13;;;;;;;23.50;13.35;;;;;;;6.17;71.44;99725.56;5051678;28;20074;-61
2022/11/08 07:42:39;;;;;;;21.60;13.32;;;;;;;6.28;71.31;99734.66;5042385;28;20483;-64
2022/11/08 07:45:07;;;;;;;25.27;12.63;;;;;;;6.31;71.11;99724.66;5034310;28;20048;-62
2022/11/08 07:47:32;;;;;;;20.58;12.40;;;;;;;6.27;71.38;99722.28;5035532;28;20099;-61
2022/11/08 07:49:58;;;;;;;24.30;12.88;;;;;;;6.26;70.82;99726.78;5053371;28;20044;-60
2022/11/08 07:52:24;;;;;;;23.92;13.48;;;;;;;6.25;70.73;99725.06;5044474;28;20025;-62
2022/11/08 07:54:50;;;;;;;21.48;12.55;;;;;;;6.24;71.21;99718.03;5033967;28;20444;-61
2022/11/08 07:57:15;;;;;;;29.88;13.18;;;;;;;6.30;70.82;99717.63;5041376;28;20033;-62
2022/11/08 07:59:40;;;;;;;22.50;12.63;;;;;;;6.33;70.75;99721.91;5053813;28;20051;-62
2022/11/08 08:02:09;;;;;;;23.67;12.88;;;;;;;6.31;70.87;99716.69;5051912;28;20070;-64
2022/11/08 08:04:34;;;;;;;22.13;12.50;;;;;;;6.23;70.37;99681.78;5053339;28;20116;-70
2022/11/08 08:07:00;;;;;;;21.40;12.60;;;;;;;6.30;70.59;99714.97;5052652;28;20422;-62
2022/11/08 08:09:25;;;;;;;23.38;12.40;;;;;;;6.35;70.75;99716.47;5052675;28;20029;-62
2022/11/08 08:11:51;;;;;;;22.27;11.85;;;;;;;6.39;70.91;99713.53;5052235;28;20333;-62
2022/11/08 08:14:16;;;;;;;22.48;13.00;;;;;;;6.40;70.71;99709.91;5042358;28;20357;-61
2022/11/08 08:16:41;;;;;;;24.38;12.80;;;;;;;6.45;70.47;99714.94;5036461;28;20120;-62
2022/11/08 08:19:07;;;;;;;25.50;13.68;;;;;;;6.51;70.46;99724.31;5033010;28;20094;-61
2022/11/08 08:21:32;;;;;;;24.38;12.93;;;;;;;6.49;70.51;99724.44;5058827;28;20029;-62
2022/11/08 08:23:58;;;;;;;23.35;12.05;;;;;;;6.50;70.55;99726.13;5041398;28;20601;-61
2022/11/08 08:26:23;;;;;;;21.25;12.73;;;;;;;6.52;70.27;99731.38;5032892;28;20030;-61
2022/11/08 08:28:49;;;;;;;22.15;11.68;;;;;;;6.49;70.44;99721.78;5032724;28;20025;-60
2022/11/08 08:31:14;;;;;;;23.50;12.50;;;;;;;6.46;70.20;99714.00;5032546;28;20488;-63
2022/11/08 08:33:40;;;;;;;21.95;12.70;;;;;;;6.50;70.15;99711.97;5036244;28;20367;-62
2022/11/08 08:36:05;;;;;;;20.70;11.73;;;;;;;6.52;70.46;99715.41;5045726;28;20068;-63
2022/11/08 08:38:33;;;;;;;21.40;12.52;;;;;;;6.54;70.30;99713.50;5052611;28;20040;-62
2022/11/08 08:40:59;;;;;;;24.33;11.68;;;;;;;6.35;70.47;99682.78;5043934;28;20037;-60
2022/11/08 08:43:32;;;;;;;;;;;;;;;6.86;70.26;99707.84;5068883;28;20711;-62
2022/11/08 08:45:59;;;;;;;22.83;11.65;;;;;;;6.51;69.70;99681.75;5066104;28;19916;-60
2022/11/08 08:48:25;;;;;;;25.05;12.30;;;;;;;6.69;69.87;99711.63;5049166;28;20068;-69
2022/11/08 08:50:50;;;;;;;25.30;12.68;;;;;;;6.71;70.23;99709.72;5056762;28;20048;-62
2022/11/08 08:53:16;;;;;;;26.77;12.43;;;;;;;6.75;70.00;99721.84;5068457;28;20033;-61
2022/11/08 08:55:42;;;;;;;23.40;12.63;;;;;;;6.75;69.82;99709.41;5069101;28;20033;-63
2022/11/08 08:58:08;;;;;;;22.98;12.52;;;;;;;6.75;69.51;99706.75;5069210;28;20076;-62
2022/11/08 09:00:34;;;;;;;23.48;12.57;;;;;;;6.79;69.75;99712.72;5068019;28;20041;-63
2022/11/08 09:03:04;;;;;;;23.00;12.05;;;;;;;6.82;70.16;99703.69;5068201;28;20033;-61
2022/11/08 09:05:30;;;;;;;23.90;11.95;;;;;;;6.83;69.21;99700.06;5063768;28;20033;-63
2022/11/08 09:07:56;;;;;;;19.60;11.68;;;;;;;6.86;69.49;99700.69;5062381;28;20060;-62
2022/11/08 09:10:21;;;;;;;20.05;10.90;;;;;;;6.80;69.37;99695.78;5060224;28;20411;-65
2022/11/08 09:12:48;;;;;;;19.42;10.77;;;;;;;6.85;69.19;99693.66;5050872;28;20029;-62
2022/11/08 09:15:15;;;;;;;19.55;11.05;;;;;;;6.84;69.83;99691.97;5051284;28;20075;-62
2022/11/08 09:17:41;;;;;;;21.08;10.77;;;;;;;6.78;69.72;99686.22;5068954;28;20146;-62
2022/11/08 09:20:07;;;;;;;18.80;11.05;;;;;;;6.50;69.66;99632.19;5069073;28;20052;-63
2022/11/08 09:22:33;;;;;;;24.58;12.38;;;;;;;6.86;69.70;99691.88;5052268;28;20120;-65
2022/11/08 09:24:59;;;;;;;19.42;10.30;;;;;;;6.88;69.58;99684.63;5051803;28;20033;-64
2022/11/08 09:27:27;;;;;;;16.52;10.25;;;;;;;6.89;69.37;99686.34;5060511;28;20451;-63
2022/11/08 09:29:52;;;;;;;20.55;10.48;;;;;;;6.66;69.46;99650.66;5068265;28;20044;-62
2022/11/08 09:32:17;;;;;;;19.05;11.05;;;;;;;6.85;69.84;99688.34;5066697;28;20025;-63
2022/11/08 09:34:43;;;;;;;16.92;10.20;;;;;;;6.89;69.54;99686.34;5051830;28;20115;-63
2022/11/08 09:37:09;;;;;;;19.92;10.35;;;;;;;6.84;69.66;99680.47;5052717;28;20044;-62
2022/11/08 09:39:34;;;;;;;21.10;10.40;;;;;;;6.86;69.59;99682.06;5049685;28;20037;-63
2022/11/08 09:42:18;;;;;;;18.55;10.35;;;;;;;6.95;69.86;99682.41;5060034;28;20045;-65
2022/11/08 09:45:05;;;;;;;16.58;9.63;;;;;;;7.01;69.81;99674.88;5054569;28;20061;-63
2022/11/08 09:47:35;;;;;;;17.50;9.80;;;;;;;6.92;69.52;99674.63;5065081;28;20040;-62
2022/11/08 09:50:19;;;;;;;16.15;9.85;;;;;;;6.95;69.88;99680.59;5067641;28;20047;-64
2022/11/08 09:53:13;;;;;;;17.00;10.18;;;;;;;7.01;69.82;99674.88;5047150;28;20053;-63
2022/11/08 09:55:44;;;;;;;15.27;10.00;;;;;;;6.77;69.63;99640.13;5037958;28;20456;-64
2022/11/08 09:58:25;;;;;;;16.77;9.50;;;;;;;6.97;69.74;99668.03;5043133;28;20351;-64
2022/11/08 10:00:52;;;;;;;16.60;9.35;;;;;;;6.92;69.69;99667.50;5054416;28;20371;-62
2022/11/08 10:03:20;;;;;;;15.38;9.65;;;;;;;6.91;69.56;99665.78;5054742;28;20373;-63
2022/11/08 10:06:24;;;;;;;18.15;9.48;;;;;;;7.02;69.86;99665.94;5051823;28;20029;-64
2022/11/08 10:09:31;;;;;;;13.85;8.70;;;;;;;7.08;69.51;99669.13;5043520;28;20467;-64
2022/11/08 10:12:19;;;;;;;13.98;8.38;;;;;;;7.03;69.57;99666.75;5049061;28;20037;-64
2022/11/08 10:14:54;;;;;;;13.85;8.77;;;;;;;7.05;69.59;99659.53;5044798;28;20115;-62
2022/11/08 10:17:36;;;;;;;14.68;9.13;;;;;;;7.08;69.75;99669.13;5053844;28;20143;-59
2022/11/08 10:20:10;;;;;;;15.52;8.93;;;;;;;7.02;69.95;99660.59;5038375;28;20345;-60
2022/11/08 10:22:58;;;;;;;16.20;9.00;;;;;;;7.14;69.96;99668.69;5048199;28;20057;-61
2022/11/08 10:25:46;;;;;;;11.85;8.07;;;;;;;7.16;69.69;99661.44;5053937;28;20132;-59
2022/11/08 10:28:15;;;;;;;14.13;8.63;;;;;;;7.09;70.02;99657.50;5054559;28;20033;-61
2022/11/08 10:30:46;;;;;;;12.15;7.75;;;;;;;7.11;69.97;99663.56;5035193;28;20033;-62
2022/11/08 10:33:27;;;;;;;14.07;8.43;;;;;;;7.16;70.30;99658.78;5054686;28;20052;-62
2022/11/08 10:36:02;;;;;;;15.25;8.13;;;;;;;7.12;69.97;99659.97;5054299;28;20029;-65
2022/11/08 10:38:35;;;;;;;12.47;7.83;;;;;;;7.18;70.04;99657.72;5051544;28;20115;-61
2022/11/08 10:41:16;;;;;;;12.18;8.20;;;;;;;7.22;70.08;99655.69;5037118;28;20870;-64
2022/11/08 10:43:50;;;;;;;11.27;7.47;;;;;;;7.23;69.65;99652.06;5043880;28;20070;-61
2022/11/08 10:46:34;;;;;;;13.70;7.70;;;;;;;7.30;69.92;99656.03;5044276;28;20508;-63
2022/11/08 10:49:30;;;;;;;11.10;7.28;;;;;;;7.29;70.06;99650.78;5034097;28;20029;-62
2022/11/08 10:52:11;;;;;;;14.13;8.00;;;;;;;7.31;70.20;99652.41;5033740;28;20651;-60
2022/11/08 10:54:49;;;;;;;12.80;7.40;;;;;;;7.29;70.02;99645.47;5033578;28;20128;-62
2022/11/08 10:57:42;;;;;;;12.93;7.60;;;;;;;7.40;70.12;99650.03;5037146;28;20040;-62
2022/11/08 11:00:37;;;;;;;12.43;7.70;;;;;;;7.44;70.09;99643.53;5054217;28;20037;-66
2022/11/08 11:03:05;;;;;;;10.75;7.20;;;;;;;7.35;69.87;99642.38;5051331;28;20946;-66
2022/11/08 11:05:36;;;;;;;12.15;7.38;;;;;;;7.31;69.98;99648.88;5052342;28;20039;-66
2022/11/08 11:08:14;;;;;;;11.65;7.05;;;;;;;7.30;69.94;99648.03;5053460;28;20040;-68
2022/11/08 11:10:48;;;;;;;11.38;6.75;;;;;;;7.27;70.09;99645.59;5052721;28;20031;-65
2022/11/08 11:13:17;;;;;;;12.07;7.15;;;;;;;7.22;70.33;99641.53;5049160;28;20094;-65
2022/11/08 11:15:59;;;;;;;11.93;6.97;;;;;;;7.26;70.42;99635.91;5053530;28;20044;-66
2022/11/08 11:18:36;;;;;;;11.15;6.47;;;;;;;7.26;70.66;99632.38;5032330;28;20379;-67
2022/11/08 11:21:17;;;;;;;12.20;6.75;;;;;;;7.31;70.92;99639.09;5033677;28;20037;-62
2022/11/08 11:23:49;;;;;;;10.00;6.35;;;;;;;7.29;70.20;99635.69;5044797;28;20029;-64
2022/11/08 11:26:19;;;;;;;10.70;6.50;;;;;;;7.29;70.39;99630.34;5051155;28;20036;-63
2022/11/08 11:29:02;;;;;;;10.68;6.20;;;;;;;7.31;70.61;99628.44;5053170;28;20037;-64
2022/11/08 11:31:28;;;;;;;10.90;5.85;;;;;;;7.23;69.89;99630.75;5035215;28;20049;-61
2022/11/08 11:33:55;;;;;;;10.95;6.05;;;;;;;7.22;70.47;99637.03;5041084;28;20029;-59
2022/11/08 11:36:23;;;;;;;12.85;6.13;;;;;;;7.03;70.35;99603.75;5049055;28;20120;-64
2022/11/08 11:39:02;;;;;;;9.57;5.93;;;;;;;7.28;70.38;99633.13;5039060;28;20064;-56
2022/11/08 11:41:38;;;;;;;9.50;6.13;;;;;;;7.22;70.31;99625.56;5038504;28;20060;-62
2022/11/08 11:44:16;;;;;;;12.43;6.03;;;;;;;7.30;70.41;99631.19;5038446;28;21284;-64
2022/11/08 11:46:58;;;;;;;12.77;6.00;;;;;;;7.30;70.22;99636.50;5037060;28;20053;-62
2022/11/08 11:49:26;;;;;;;11.00;6.93;;;;;;;7.24;69.97;99643.16;5034312;28;20029;-63
2022/11/08 11:51:53;;;;;;;10.95;6.15;;;;;;;7.06;70.38;99617.78;5039825;28;20043;-63
2022/11/08 11:54:28;;;;;;;7.50;5.55;;;;;;;7.21;70.79;99634.50;5048360;28;20028;-62